sensor_id;sensor_type;location;lat;lon;timestamp;temperature;humidity
20345;DHT22;10330;48.816;9.278;2023-06-14T00:02:16;18.00;90.20
20345;DHT22;10330;48.816;9.278;2023-06-14T00:04:43;18.00;90.50
20345;DHT22;10330;48.816;9.278;2023-06-14T00:07:09;17.90;90.20
20345;DHT22;10330;48.816;9.278;2023-06-14T00:09:35;17.90;90.50
20345;DHT22;10330;48.816;9.278;2023-06-14T00:12:02;17.80;91.10
20345;DHT22;10330;48.816;9.278;2023-06-14T00:14:28;17.80;90.90
20345;DHT22;10330;48.816;9.278;2023-06-14T00:16:55;17.70;91.50
20345;DHT22;10330;48.816;9.278;2023-06-14T00:19:27;17.70;91.80
20345;DHT22;10330;48.816;9.278;2023-06-14T00:21:53;17.60;92.20
20345;DHT22;10330;48.816;9.278;2023-06-14T00:24:20;17.60;92.60
20345;DHT22;10330;48.816;9.278;2023-06-14T00:26:47;17.60;92.60
20345;DHT22;10330;48.816;9.278;2023-06-14T00:29:13;17.50;92.80
20345;DHT22;10330;48.816;9.278;2023-06-14T00:31:43;17.50;93.10
20345;DHT22;10330;48.816;9.278;2023-06-14T00:34:09;17.40;93.50
20345;DHT22;10330;48.816;9.278;2023-06-14T00:36:35;17.40;93.90
20345;DHT22;10330;48.816;9.278;2023-06-14T00:39:02;17.40;94.20
20345;DHT22;10330;48.816;9.278;2023-06-14T00:41:29;17.40;94.50
20345;DHT22;10330;48.816;9.278;2023-06-14T00:43:56;17.40;94.50
20345;DHT22;10330;48.816;9.278;2023-06-14T00:46:22;17.30;94.90
20345;DHT22;10330;48.816;9.278;2023-06-14T00:48:49;17.30;94.40
20345;DHT22;10330;48.816;9.278;2023-06-14T00:51:16;17.30;95.00
20345;DHT22;10330;48.816;9.278;2023-06-14T00:53:42;17.30;95.40
20345;DHT22;10330;48.816;9.278;2023-06-14T00:56:13;17.20;95.80
20345;DHT22;10330;48.816;9.278;2023-06-14T00:58:42;17.30;96.30
20345;DHT22;10330;48.816;9.278;2023-06-14T01:01:09;17.20;96.20
20345;DHT22;10330;48.816;9.278;2023-06-14T01:03:36;17.20;96.70
20345;DHT22;10330;48.816;9.278;2023-06-14T01:06:33;17.10;96.80
20345;DHT22;10330;48.816;9.278;2023-06-14T01:09:55;17.10;97.20
20345;DHT22;10330;48.816;9.278;2023-06-14T01:12:28;17.00;97.50
20345;DHT22;10330;48.816;9.278;2023-06-14T01:15:07;17.00;98.00
20345;DHT22;10330;48.816;9.278;2023-06-14T01:17:34;17.00;98.50
20345;DHT22;10330;48.816;9.278;2023-06-14T01:20:03;17.00;98.70
20345;DHT22;10330;48.816;9.278;2023-06-14T01:22:36;17.00;99.20
20345;DHT22;10330;48.816;9.278;2023-06-14T01:25:02;17.00;99.50
20345;DHT22;10330;48.816;9.278;2023-06-14T01:27:29;17.00;99.90
20345;DHT22;10330;48.816;9.278;2023-06-14T01:29:56;17.00;99.90
20345;DHT22;10330;48.816;9.278;2023-06-14T01:32:32;17.00;99.90
20345;DHT22;10330;48.816;9.278;2023-06-14T01:35:01;16.90;99.90
20345;DHT22;10330;48.816;9.278;2023-06-14T01:37:28;16.90;99.90
20345;DHT22;10330;48.816;9.278;2023-06-14T01:39:55;16.90;99.90
20345;DHT22;10330;48.816;9.278;2023-06-14T01:42:23;16.90;99.90
20345;DHT22;10330;48.816;9.278;2023-06-14T01:44:49;16.90;99.90
20345;DHT22;10330;48.816;9.278;2023-06-14T01:47:17;16.90;99.90
20345;DHT22;10330;48.816;9.278;2023-06-14T01:49:43;16.90;99.90
20345;DHT22;10330;48.816;9.278;2023-06-14T01:52:12;16.80;99.90
20345;DHT22;10330;48.816;9.278;2023-06-14T01:54:38;16.80;99.90
20345;DHT22;10330;48.816;9.278;2023-06-14T01:57:08;16.80;99.90
20345;DHT22;10330;48.816;9.278;2023-06-14T01:59:34;16.80;99.90
20345;DHT22;10330;48.816;9.278;2023-06-14T02:02:02;16.70;99.90
20345;DHT22;10330;48.816;9.278;2023-06-14T02:04:32;16.60;99.90
20345;DHT22;10330;48.816;9.278;2023-06-14T02:06:58;16.60;99.90
20345;DHT22;10330;48.816;9.278;2023-06-14T02:09:24;16.60;99.90
20345;DHT22;10330;48.816;9.278;2023-06-14T02:11:53;16.50;99.90
20345;DHT22;10330;48.816;9.278;2023-06-14T02:14:20;16.60;99.90
20345;DHT22;10330;48.816;9.278;2023-06-14T02:16:46;16.50;99.90
20345;DHT22;10330;48.816;9.278;2023-06-14T02:19:16;16.50;99.90
20345;DHT22;10330;48.816;9.278;2023-06-14T02:21:46;16.40;99.90
20345;DHT22;10330;48.816;9.278;2023-06-14T02:24:13;16.30;99.90
20345;DHT22;10330;48.816;9.278;2023-06-14T02:26:39;16.40;99.90
20345;DHT22;10330;48.816;9.278;2023-06-14T02:29:07;16.40;99.90
20345;DHT22;10330;48.816;9.278;2023-06-14T02:31:37;16.30;99.90
20345;DHT22;10330;48.816;9.278;2023-06-14T02:34:04;16.30;99.90
20345;DHT22;10330;48.816;9.278;2023-06-14T02:36:30;16.20;99.90
20345;DHT22;10330;48.816;9.278;2023-06-14T02:38:56;16.20;99.90
20345;DHT22;10330;48.816;9.278;2023-06-14T02:41:24;16.20;99.90
20345;DHT22;10330;48.816;9.278;2023-06-14T02:43:53;16.20;99.90
20345;DHT22;10330;48.816;9.278;2023-06-14T02:46:19;16.10;99.90
20345;DHT22;10330;48.816;9.278;2023-06-14T02:48:45;16.20;99.90
20345;DHT22;10330;48.816;9.278;2023-06-14T02:51:11;16.20;99.90
20345;DHT22;10330;48.816;9.278;2023-06-14T02:53:38;16.20;99.90
20345;DHT22;10330;48.816;9.278;2023-06-14T02:56:09;16.20;99.90
20345;DHT22;10330;48.816;9.278;2023-06-14T02:58:38;16.10;99.90
20345;DHT22;10330;48.816;9.278;2023-06-14T03:01:06;16.00;99.90
20345;DHT22;10330;48.816;9.278;2023-06-14T03:03:33;16.00;99.90
20345;DHT22;10330;48.816;9.278;2023-06-14T03:06:00;16.00;99.90
20345;DHT22;10330;48.816;9.278;2023-06-14T03:08:32;16.10;99.90
20345;DHT22;10330;48.816;9.278;2023-06-14T03:11:07;16.00;99.90
20345;DHT22;10330;48.816;9.278;2023-06-14T03:13:37;16.10;99.90
20345;DHT22;10330;48.816;9.278;2023-06-14T03:16:05;15.90;99.90
20345;DHT22;10330;48.816;9.278;2023-06-14T03:18:36;16.00;99.90
20345;DHT22;10330;48.816;9.278;2023-06-14T03:21:08;15.90;99.90
20345;DHT22;10330;48.816;9.278;2023-06-14T03:23:35;15.90;99.90
20345;DHT22;10330;48.816;9.278;2023-06-14T03:26:03;15.90;99.90
20345;DHT22;10330;48.816;9.278;2023-06-14T03:28:30;15.90;99.90
20345;DHT22;10330;48.816;9.278;2023-06-14T03:30:57;15.80;99.90
20345;DHT22;10330;48.816;9.278;2023-06-14T03:33:24;15.80;99.90
20345;DHT22;10330;48.816;9.278;2023-06-14T03:35:53;15.80;99.90
20345;DHT22;10330;48.816;9.278;2023-06-14T03:38:19;15.80;99.90
20345;DHT22;10330;48.816;9.278;2023-06-14T03:40:46;15.70;99.90
20345;DHT22;10330;48.816;9.278;2023-06-14T03:43:12;15.60;99.90
20345;DHT22;10330;48.816;9.278;2023-06-14T03:45:39;15.60;99.90
20345;DHT22;10330;48.816;9.278;2023-06-14T03:48:05;15.70;99.90
20345;DHT22;10330;48.816;9.278;2023-06-14T03:50:32;15.50;99.90
20345;DHT22;10330;48.816;9.278;2023-06-14T03:52:58;15.50;99.90
20345;DHT22;10330;48.816;9.278;2023-06-14T03:55:25;15.50;99.90
20345;DHT22;10330;48.816;9.278;2023-06-14T03:57:53;15.40;99.90
20345;DHT22;10330;48.816;9.278;2023-06-14T04:00:20;15.40;99.90
20345;DHT22;10330;48.816;9.278;2023-06-14T04:02:46;15.40;99.90
20345;DHT22;10330;48.816;9.278;2023-06-14T04:05:13;15.40;99.90
20345;DHT22;10330;48.816;9.278;2023-06-14T04:07:45;15.40;99.90
20345;DHT22;10330;48.816;9.278;2023-06-14T04:10:15;15.40;99.90
20345;DHT22;10330;48.816;9.278;2023-06-14T04:12:42;15.40;99.90
20345;DHT22;10330;48.816;9.278;2023-06-14T04:15:09;15.50;99.90
20345;DHT22;10330;48.816;9.278;2023-06-14T04:17:37;15.50;99.90
20345;DHT22;10330;48.816;9.278;2023-06-14T04:20:05;15.50;99.90
20345;DHT22;10330;48.816;9.278;2023-06-14T04:22:34;15.60;99.90
20345;DHT22;10330;48.816;9.278;2023-06-14T04:25:01;15.60;99.90
20345;DHT22;10330;48.816;9.278;2023-06-14T04:27:27;15.70;99.90
20345;DHT22;10330;48.816;9.278;2023-06-14T04:29:57;15.80;99.90
20345;DHT22;10330;48.816;9.278;2023-06-14T04:32:26;15.70;99.90
20345;DHT22;10330;48.816;9.278;2023-06-14T04:34:56;15.70;99.90
20345;DHT22;10330;48.816;9.278;2023-06-14T04:37:24;15.80;99.90
20345;DHT22;10330;48.816;9.278;2023-06-14T04:39:50;15.60;99.90
20345;DHT22;10330;48.816;9.278;2023-06-14T04:42:18;15.70;99.90
20345;DHT22;10330;48.816;9.278;2023-06-14T04:44:46;15.70;99.90
20345;DHT22;10330;48.816;9.278;2023-06-14T04:47:14;15.70;99.90
20345;DHT22;10330;48.816;9.278;2023-06-14T04:49:45;15.70;99.90
20345;DHT22;10330;48.816;9.278;2023-06-14T04:52:12;15.60;99.90
20345;DHT22;10330;48.816;9.278;2023-06-14T04:54:45;15.60;99.90
20345;DHT22;10330;48.816;9.278;2023-06-14T04:57:16;15.50;99.90
20345;DHT22;10330;48.816;9.278;2023-06-14T04:59:44;15.50;99.90
20345;DHT22;10330;48.816;9.278;2023-06-14T05:02:11;15.60;99.90
20345;DHT22;10330;48.816;9.278;2023-06-14T05:04:38;15.60;99.90
20345;DHT22;10330;48.816;9.278;2023-06-14T05:07:09;15.60;99.90
20345;DHT22;10330;48.816;9.278;2023-06-14T05:09:36;15.60;99.90
20345;DHT22;10330;48.816;9.278;2023-06-14T05:12:03;15.60;99.90
20345;DHT22;10330;48.816;9.278;2023-06-14T05:14:29;15.70;99.90
20345;DHT22;10330;48.816;9.278;2023-06-14T05:16:57;15.80;99.90
20345;DHT22;10330;48.816;9.278;2023-06-14T05:19:23;15.80;99.90
20345;DHT22;10330;48.816;9.278;2023-06-14T05:21:49;16.00;99.90
20345;DHT22;10330;48.816;9.278;2023-06-14T05:24:16;15.90;99.90
20345;DHT22;10330;48.816;9.278;2023-06-14T05:26:43;16.00;99.90
20345;DHT22;10330;48.816;9.278;2023-06-14T05:29:10;16.00;99.90
20345;DHT22;10330;48.816;9.278;2023-06-14T05:31:36;16.10;99.90
20345;DHT22;10330;48.816;9.278;2023-06-14T05:34:02;16.20;99.90
20345;DHT22;10330;48.816;9.278;2023-06-14T05:36:29;16.30;99.90
20345;DHT22;10330;48.816;9.278;2023-06-14T05:38:55;16.40;99.90
20345;DHT22;10330;48.816;9.278;2023-06-14T05:41:26;16.50;99.90
20345;DHT22;10330;48.816;9.278;2023-06-14T05:43:54;16.60;99.90
20345;DHT22;10330;48.816;9.278;2023-06-14T05:46:21;16.60;99.90
20345;DHT22;10330;48.816;9.278;2023-06-14T05:48:53;16.70;99.90
20345;DHT22;10330;48.816;9.278;2023-06-14T05:51:21;16.70;99.90
20345;DHT22;10330;48.816;9.278;2023-06-14T05:53:48;16.80;99.90
20345;DHT22;10330;48.816;9.278;2023-06-14T05:56:15;16.90;99.90
20345;DHT22;10330;48.816;9.278;2023-06-14T05:58:44;16.90;99.90
20345;DHT22;10330;48.816;9.278;2023-06-14T06:01:10;17.00;99.90
20345;DHT22;10330;48.816;9.278;2023-06-14T06:03:37;17.10;99.90
20345;DHT22;10330;48.816;9.278;2023-06-14T06:06:03;17.20;99.90
20345;DHT22;10330;48.816;9.278;2023-06-14T06:08:29;17.30;99.90
20345;DHT22;10330;48.816;9.278;2023-06-14T06:10:57;17.40;99.90
20345;DHT22;10330;48.816;9.278;2023-06-14T06:13:23;17.50;99.90
20345;DHT22;10330;48.816;9.278;2023-06-14T06:15:49;17.60;99.90
20345;DHT22;10330;48.816;9.278;2023-06-14T06:18:16;17.70;99.90
20345;DHT22;10330;48.816;9.278;2023-06-14T06:20:43;17.70;99.90
20345;DHT22;10330;48.816;9.278;2023-06-14T06:23:10;17.60;99.90
20345;DHT22;10330;48.816;9.278;2023-06-14T06:25:36;17.70;99.90
20345;DHT22;10330;48.816;9.278;2023-06-14T06:28:03;17.70;99.90
20345;DHT22;10330;48.816;9.278;2023-06-14T06:30:29;17.80;99.90
20345;DHT22;10330;48.816;9.278;2023-06-14T06:32:55;17.80;99.90
20345;DHT22;10330;48.816;9.278;2023-06-14T06:35:21;17.90;99.90
20345;DHT22;10330;48.816;9.278;2023-06-14T06:37:48;17.90;99.90
20345;DHT22;10330;48.816;9.278;2023-06-14T06:40:14;17.90;99.90
20345;DHT22;10330;48.816;9.278;2023-06-14T06:42:41;18.00;99.90
20345;DHT22;10330;48.816;9.278;2023-06-14T06:45:13;18.10;99.90
20345;DHT22;10330;48.816;9.278;2023-06-14T06:47:39;18.20;99.90
20345;DHT22;10330;48.816;9.278;2023-06-14T06:50:06;18.20;99.90
20345;DHT22;10330;48.816;9.278;2023-06-14T06:52:33;18.20;99.90
20345;DHT22;10330;48.816;9.278;2023-06-14T06:54:59;18.30;99.90
20345;DHT22;10330;48.816;9.278;2023-06-14T06:57:26;18.40;99.90
20345;DHT22;10330;48.816;9.278;2023-06-14T06:59:54;18.50;99.90
20345;DHT22;10330;48.816;9.278;2023-06-14T07:02:20;18.60;99.90
20345;DHT22;10330;48.816;9.278;2023-06-14T07:04:46;18.70;99.90
20345;DHT22;10330;48.816;9.278;2023-06-14T07:07:12;18.70;99.90
20345;DHT22;10330;48.816;9.278;2023-06-14T07:09:39;18.70;99.90
20345;DHT22;10330;48.816;9.278;2023-06-14T07:12:06;18.70;99.90
20345;DHT22;10330;48.816;9.278;2023-06-14T07:14:33;18.80;99.90
20345;DHT22;10330;48.816;9.278;2023-06-14T07:17:00;18.80;99.90
20345;DHT22;10330;48.816;9.278;2023-06-14T07:19:26;19.00;99.90
20345;DHT22;10330;48.816;9.278;2023-06-14T07:21:52;19.40;99.90
20345;DHT22;10330;48.816;9.278;2023-06-14T07:24:20;19.40;99.90
20345;DHT22;10330;48.816;9.278;2023-06-14T07:26:47;19.40;99.90
20345;DHT22;10330;48.816;9.278;2023-06-14T07:29:14;19.50;99.90
20345;DHT22;10330;48.816;9.278;2023-06-14T07:31:42;19.40;99.90
20345;DHT22;10330;48.816;9.278;2023-06-14T07:34:09;19.50;99.90
20345;DHT22;10330;48.816;9.278;2023-06-14T07:36:35;19.40;99.90
20345;DHT22;10330;48.816;9.278;2023-06-14T07:39:02;19.50;99.90
20345;DHT22;10330;48.816;9.278;2023-06-14T07:41:29;19.50;99.90
20345;DHT22;10330;48.816;9.278;2023-06-14T07:43:56;19.50;99.90
20345;DHT22;10330;48.816;9.278;2023-06-14T07:46:22;19.60;99.90
20345;DHT22;10330;48.816;9.278;2023-06-14T07:48:48;19.60;99.90
20345;DHT22;10330;48.816;9.278;2023-06-14T07:51:14;19.70;99.90
20345;DHT22;10330;48.816;9.278;2023-06-14T07:53:41;19.70;99.90
20345;DHT22;10330;48.816;9.278;2023-06-14T07:56:08;19.80;99.90
20345;DHT22;10330;48.816;9.278;2023-06-14T07:58:34;19.90;99.90
20345;DHT22;10330;48.816;9.278;2023-06-14T08:01:00;20.00;99.90
20345;DHT22;10330;48.816;9.278;2023-06-14T08:03:32;20.10;99.90
20345;DHT22;10330;48.816;9.278;2023-06-14T08:05:58;20.10;99.90
20345;DHT22;10330;48.816;9.278;2023-06-14T08:08:24;20.10;99.90
20345;DHT22;10330;48.816;9.278;2023-06-14T08:10:51;20.30;99.90
20345;DHT22;10330;48.816;9.278;2023-06-14T08:13:17;20.30;99.90
20345;DHT22;10330;48.816;9.278;2023-06-14T08:15:45;20.40;99.90
20345;DHT22;10330;48.816;9.278;2023-06-14T08:18:11;20.50;99.90
20345;DHT22;10330;48.816;9.278;2023-06-14T08:20:38;20.50;99.90
20345;DHT22;10330;48.816;9.278;2023-06-14T08:23:04;20.50;99.90
20345;DHT22;10330;48.816;9.278;2023-06-14T08:25:30;20.70;99.90
20345;DHT22;10330;48.816;9.278;2023-06-14T08:27:59;20.80;99.90
20345;DHT22;10330;48.816;9.278;2023-06-14T08:30:26;20.80;99.90
20345;DHT22;10330;48.816;9.278;2023-06-14T08:32:52;20.90;99.90
20345;DHT22;10330;48.816;9.278;2023-06-14T08:35:22;21.10;99.90
20345;DHT22;10330;48.816;9.278;2023-06-14T08:37:51;21.20;99.90
20345;DHT22;10330;48.816;9.278;2023-06-14T08:40:21;21.30;99.90
20345;DHT22;10330;48.816;9.278;2023-06-14T08:42:51;21.40;99.90
20345;DHT22;10330;48.816;9.278;2023-06-14T08:45:17;21.50;99.90
20345;DHT22;10330;48.816;9.278;2023-06-14T08:47:44;21.60;99.90
20345;DHT22;10330;48.816;9.278;2023-06-14T08:50:11;21.60;99.90
20345;DHT22;10330;48.816;9.278;2023-06-14T08:52:38;21.60;99.90
20345;DHT22;10330;48.816;9.278;2023-06-14T08:55:11;21.70;99.90
20345;DHT22;10330;48.816;9.278;2023-06-14T08:57:39;21.80;99.90
20345;DHT22;10330;48.816;9.278;2023-06-14T09:00:06;21.90;99.90
20345;DHT22;10330;48.816;9.278;2023-06-14T09:02:41;21.90;99.90
20345;DHT22;10330;48.816;9.278;2023-06-14T09:05:13;22.00;99.90
20345;DHT22;10330;48.816;9.278;2023-06-14T09:07:40;22.10;99.90
20345;DHT22;10330;48.816;9.278;2023-06-14T09:10:12;22.20;99.90
20345;DHT22;10330;48.816;9.278;2023-06-14T09:12:39;22.30;99.90
20345;DHT22;10330;48.816;9.278;2023-06-14T09:15:06;22.40;99.90
20345;DHT22;10330;48.816;9.278;2023-06-14T09:17:38;22.40;99.90
20345;DHT22;10330;48.816;9.278;2023-06-14T09:20:06;22.40;99.90
20345;DHT22;10330;48.816;9.278;2023-06-14T09:22:33;22.40;99.90
20345;DHT22;10330;48.816;9.278;2023-06-14T09:24:59;22.50;99.90
20345;DHT22;10330;48.816;9.278;2023-06-14T09:27:26;22.50;99.90
20345;DHT22;10330;48.816;9.278;2023-06-14T09:29:53;22.50;99.90
20345;DHT22;10330;48.816;9.278;2023-06-14T09:32:21;22.60;99.90
20345;DHT22;10330;48.816;9.278;2023-06-14T09:34:47;22.60;99.90
20345;DHT22;10330;48.816;9.278;2023-06-14T09:37:27;22.70;99.90
20345;DHT22;10330;48.816;9.278;2023-06-14T09:39:57;22.80;99.90
20345;DHT22;10330;48.816;9.278;2023-06-14T09:42:23;22.90;99.90
20345;DHT22;10330;48.816;9.278;2023-06-14T09:44:53;23.00;99.90
20345;DHT22;10330;48.816;9.278;2023-06-14T09:47:20;23.10;98.80
20345;DHT22;10330;48.816;9.278;2023-06-14T09:49:47;23.20;99.90
20345;DHT22;10330;48.816;9.278;2023-06-14T09:52:18;23.20;99.90
20345;DHT22;10330;48.816;9.278;2023-06-14T09:54:46;23.30;98.90
20345;DHT22;10330;48.816;9.278;2023-06-14T09:57:15;23.40;99.30
20345;DHT22;10330;48.816;9.278;2023-06-14T09:59:43;23.40;98.10
20345;DHT22;10330;48.816;9.278;2023-06-14T10:02:14;23.60;98.50
20345;DHT22;10330;48.816;9.278;2023-06-14T10:04:49;23.80;96.90
20345;DHT22;10330;48.816;9.278;2023-06-14T10:07:20;23.90;95.30
20345;DHT22;10330;48.816;9.278;2023-06-14T10:09:49;24.00;95.10
20345;DHT22;10330;48.816;9.278;2023-06-14T10:12:17;24.00;93.70
20345;DHT22;10330;48.816;9.278;2023-06-14T10:14:49;24.00;93.80
20345;DHT22;10330;48.816;9.278;2023-06-14T10:17:27;24.20;94.30
20345;DHT22;10330;48.816;9.278;2023-06-14T10:20:07;24.30;92.80
20345;DHT22;10330;48.816;9.278;2023-06-14T10:22:43;24.40;92.40
20345;DHT22;10330;48.816;9.278;2023-06-14T10:25:13;24.60;92.20
20345;DHT22;10330;48.816;9.278;2023-06-14T10:27:51;24.60;91.60
20345;DHT22;10330;48.816;9.278;2023-06-14T10:30:17;24.60;90.50
20345;DHT22;10330;48.816;9.278;2023-06-14T10:33:07;24.60;92.70
20345;DHT22;10330;48.816;9.278;2023-06-14T10:35:34;24.70;91.70
20345;DHT22;10330;48.816;9.278;2023-06-14T10:38:11;24.60;91.40
20345;DHT22;10330;48.816;9.278;2023-06-14T10:40:38;24.60;91.10
20345;DHT22;10330;48.816;9.278;2023-06-14T10:43:24;24.50;88.30
20345;DHT22;10330;48.816;9.278;2023-06-14T10:48:45;24.80;92.20
20345;DHT22;10330;48.816;9.278;2023-06-14T10:51:21;24.90;91.20
20345;DHT22;10330;48.816;9.278;2023-06-14T10:53:48;25.10;88.70
20345;DHT22;10330;48.816;9.278;2023-06-14T10:56:27;25.10;90.00
20345;DHT22;10330;48.816;9.278;2023-06-14T10:58:55;25.10;89.70
20345;DHT22;10330;48.816;9.278;2023-06-14T11:01:38;25.30;92.20
20345;DHT22;10330;48.816;9.278;2023-06-14T11:04:11;25.50;92.10
20345;DHT22;10330;48.816;9.278;2023-06-14T11:06:48;25.40;91.10
20345;DHT22;10330;48.816;9.278;2023-06-14T11:09:46;25.10;89.00
20345;DHT22;10330;48.816;9.278;2023-06-14T11:12:18;25.00;90.70
20345;DHT22;10330;48.816;9.278;2023-06-14T11:14:46;25.00;92.10
20345;DHT22;10330;48.816;9.278;2023-06-14T11:17:13;25.10;91.70
20345;DHT22;10330;48.816;9.278;2023-06-14T11:19:39;25.40;90.90
20345;DHT22;10330;48.816;9.278;2023-06-14T11:22:06;25.50;90.30
20345;DHT22;10330;48.816;9.278;2023-06-14T11:24:33;25.50;87.50
20345;DHT22;10330;48.816;9.278;2023-06-14T11:26:59;25.70;90.20
20345;DHT22;10330;48.816;9.278;2023-06-14T11:29:25;25.60;84.20
20345;DHT22;10330;48.816;9.278;2023-06-14T11:31:51;25.60;85.10
20345;DHT22;10330;48.816;9.278;2023-06-14T11:34:18;25.70;84.50
20345;DHT22;10330;48.816;9.278;2023-06-14T11:36:44;25.80;83.50
20345;DHT22;10330;48.816;9.278;2023-06-14T11:39:12;25.70;83.10
20345;DHT22;10330;48.816;9.278;2023-06-14T11:41:39;25.50;84.10
20345;DHT22;10330;48.816;9.278;2023-06-14T11:44:06;25.50;83.70
20345;DHT22;10330;48.816;9.278;2023-06-14T11:46:33;25.50;83.30
20345;DHT22;10330;48.816;9.278;2023-06-14T11:49:00;25.70;85.00
20345;DHT22;10330;48.816;9.278;2023-06-14T11:51:33;25.70;82.00
20345;DHT22;10330;48.816;9.278;2023-06-14T11:54:00;25.50;85.00
20345;DHT22;10330;48.816;9.278;2023-06-14T11:56:26;25.50;85.60
20345;DHT22;10330;48.816;9.278;2023-06-14T11:58:53;25.40;82.50
20345;DHT22;10330;48.816;9.278;2023-06-14T12:01:22;25.40;85.30
20345;DHT22;10330;48.816;9.278;2023-06-14T12:03:50;25.50;86.30
20345;DHT22;10330;48.816;9.278;2023-06-14T12:06:19;25.90;85.40
20345;DHT22;10330;48.816;9.278;2023-06-14T12:08:51;26.50;85.60
20345;DHT22;10330;48.816;9.278;2023-06-14T12:11:18;26.90;85.30
20345;DHT22;10330;48.816;9.278;2023-06-14T12:13:54;27.10;84.00
20345;DHT22;10330;48.816;9.278;2023-06-14T12:16:20;27.00;80.60
20345;DHT22;10330;48.816;9.278;2023-06-14T12:18:46;26.90;81.40
20345;DHT22;10330;48.816;9.278;2023-06-14T12:21:12;26.80;79.20
20345;DHT22;10330;48.816;9.278;2023-06-14T12:23:49;27.00;83.00
20345;DHT22;10330;48.816;9.278;2023-06-14T12:26:17;27.50;80.20
20345;DHT22;10330;48.816;9.278;2023-06-14T12:28:47;28.00;80.10
20345;DHT22;10330;48.816;9.278;2023-06-14T12:31:15;28.70;74.60
20345;DHT22;10330;48.816;9.278;2023-06-14T12:33:42;29.20;74.50
20345;DHT22;10330;48.816;9.278;2023-06-14T12:36:09;29.60;74.30
20345;DHT22;10330;48.816;9.278;2023-06-14T12:38:37;29.50;67.70
20345;DHT22;10330;48.816;9.278;2023-06-14T12:41:06;30.00;74.90
20345;DHT22;10330;48.816;9.278;2023-06-14T12:43:33;30.50;70.60
20345;DHT22;10330;48.816;9.278;2023-06-14T12:46:03;30.10;67.00
20345;DHT22;10330;48.816;9.278;2023-06-14T12:49:17;29.70;68.10
20345;DHT22;10330;48.816;9.278;2023-06-14T12:51:44;30.30;69.80
20345;DHT22;10330;48.816;9.278;2023-06-14T12:58:11;31.10;73.80
20345;DHT22;10330;48.816;9.278;2023-06-14T13:01:42;31.30;72.00
20345;DHT22;10330;48.816;9.278;2023-06-14T13:04:14;31.50;70.90
20345;DHT22;10330;48.816;9.278;2023-06-14T13:06:55;31.50;69.50
20345;DHT22;10330;48.816;9.278;2023-06-14T13:09:21;31.30;64.00
20345;DHT22;10330;48.816;9.278;2023-06-14T13:14:57;31.20;65.50
20345;DHT22;10330;48.816;9.278;2023-06-14T13:17:33;31.60;70.80
20345;DHT22;10330;48.816;9.278;2023-06-14T13:20:07;31.90;68.40
20345;DHT22;10330;48.816;9.278;2023-06-14T13:22:34;32.00;65.00
20345;DHT22;10330;48.816;9.278;2023-06-14T13:25:02;32.20;67.00
20345;DHT22;10330;48.816;9.278;2023-06-14T13:27:28;32.50;64.70
20345;DHT22;10330;48.816;9.278;2023-06-14T13:38:41;32.80;65.60
20345;DHT22;10330;48.816;9.278;2023-06-14T13:41:07;33.20;65.40
20345;DHT22;10330;48.816;9.278;2023-06-14T13:51:25;31.90;63.20
20345;DHT22;10330;48.816;9.278;2023-06-14T13:54:38;30.90;63.00
20345;DHT22;10330;48.816;9.278;2023-06-14T13:57:23;30.10;64.90
20345;DHT22;10330;48.816;9.278;2023-06-14T14:03:44;29.20;64.20
20345;DHT22;10330;48.816;9.278;2023-06-14T14:10:12;29.90;66.20
20345;DHT22;10330;48.816;9.278;2023-06-14T14:13:05;30.10;66.90
20345;DHT22;10330;48.816;9.278;2023-06-14T14:15:36;31.00;69.80
20345;DHT22;10330;48.816;9.278;2023-06-14T14:18:21;31.70;65.10
20345;DHT22;10330;48.816;9.278;2023-06-14T14:20:54;31.90;63.50
20345;DHT22;10330;48.816;9.278;2023-06-14T14:23:28;32.30;60.20
20345;DHT22;10330;48.816;9.278;2023-06-14T14:26:04;32.70;61.20
20345;DHT22;10330;48.816;9.278;2023-06-14T14:28:43;33.40;63.20
20345;DHT22;10330;48.816;9.278;2023-06-14T14:31:16;33.60;61.20
20345;DHT22;10330;48.816;9.278;2023-06-14T15:00:49;33.60;59.80
20345;DHT22;10330;48.816;9.278;2023-06-14T15:03:15;32.90;59.00
20345;DHT22;10330;48.816;9.278;2023-06-14T15:05:41;32.20;59.20
20345;DHT22;10330;48.816;9.278;2023-06-14T15:08:08;31.60;59.30
20345;DHT22;10330;48.816;9.278;2023-06-14T15:10:40;31.30;60.60
20345;DHT22;10330;48.816;9.278;2023-06-14T15:13:10;31.40;62.00
20345;DHT22;10330;48.816;9.278;2023-06-14T15:15:40;31.60;60.70
20345;DHT22;10330;48.816;9.278;2023-06-14T15:18:06;31.80;61.00
20345;DHT22;10330;48.816;9.278;2023-06-14T15:20:35;31.80;61.40
20345;DHT22;10330;48.816;9.278;2023-06-14T15:23:04;31.90;59.50
20345;DHT22;10330;48.816;9.278;2023-06-14T15:25:30;32.10;59.00
20345;DHT22;10330;48.816;9.278;2023-06-14T15:27:58;32.20;60.40
20345;DHT22;10330;48.816;9.278;2023-06-14T15:30:33;32.20;58.80
20345;DHT22;10330;48.816;9.278;2023-06-14T15:33:52;32.20;59.20
20345;DHT22;10330;48.816;9.278;2023-06-14T15:36:21;32.50;59.20
20345;DHT22;10330;48.816;9.278;2023-06-14T15:38:47;32.60;58.00
20345;DHT22;10330;48.816;9.278;2023-06-14T15:41:16;32.80;59.40
20345;DHT22;10330;48.816;9.278;2023-06-14T15:43:42;32.70;56.80
20345;DHT22;10330;48.816;9.278;2023-06-14T15:46:08;33.00;58.90
20345;DHT22;10330;48.816;9.278;2023-06-14T15:48:34;33.20;58.60
20345;DHT22;10330;48.816;9.278;2023-06-14T15:51:01;33.40;57.00
20345;DHT22;10330;48.816;9.278;2023-06-14T15:53:28;33.70;57.50
20345;DHT22;10330;48.816;9.278;2023-06-14T15:56:16;33.80;55.80
20345;DHT22;10330;48.816;9.278;2023-06-14T15:58:44;34.10;56.40
20345;DHT22;10330;48.816;9.278;2023-06-14T16:01:11;34.60;56.10
20345;DHT22;10330;48.816;9.278;2023-06-14T16:03:37;34.80;55.30
20345;DHT22;10330;48.816;9.278;2023-06-14T16:06:04;35.30;55.60
20345;DHT22;10330;48.816;9.278;2023-06-14T16:08:30;35.50;54.10
20345;DHT22;10330;48.816;9.278;2023-06-14T16:10:56;35.60;53.10
20345;DHT22;10330;48.816;9.278;2023-06-14T16:13:22;35.90;54.10
20345;DHT22;10330;48.816;9.278;2023-06-14T16:15:52;36.00;53.60
20345;DHT22;10330;48.816;9.278;2023-06-14T16:18:18;36.00;53.80
20345;DHT22;10330;48.816;9.278;2023-06-14T16:20:44;36.00;52.70
20345;DHT22;10330;48.816;9.278;2023-06-14T16:23:42;36.00;52.40
20345;DHT22;10330;48.816;9.278;2023-06-14T16:26:32;36.10;51.60
20345;DHT22;10330;48.816;9.278;2023-06-14T16:29:01;36.10;52.00
20345;DHT22;10330;48.816;9.278;2023-06-14T16:31:31;35.90;52.90
20345;DHT22;10330;48.816;9.278;2023-06-14T16:34:32;35.10;52.50
20345;DHT22;10330;48.816;9.278;2023-06-14T16:37:03;35.10;53.10
20345;DHT22;10330;48.816;9.278;2023-06-14T16:39:31;35.40;53.90
20345;DHT22;10330;48.816;9.278;2023-06-14T16:42:26;35.60;52.70
20345;DHT22;10330;48.816;9.278;2023-06-14T16:45:01;35.70;52.20
20345;DHT22;10330;48.816;9.278;2023-06-14T16:47:33;35.80;52.60